Time;durP1;ratioP1;P1;durP2;ratioP2;P2;SDS_P1;SDS_P2;PMS_P1;PMS_P2;Temp;Humidity;BMP_temperature;BMP_pressure;BME280_temperature;BME280_humidity;BME280_pressure;Samples;Min_cycle;Max_cycle;Signal;HPM_P1;HPM_P2
2022/06/13 00:01:19;;;;;;;5.80;4.15;;;11.80;99.90;;;;;;5049742;28;20029;-49
2022/06/13 00:03:45;;;;;;;8.40;5.03;;;11.70;99.90;;;;;;5047024;28;20021;-50
2022/06/13 00:06:11;;;;;;;10.52;4.00;;;11.70;99.90;;;;;;5049730;28;20021;-51
2022/06/13 00:08:37;;;;;;;12.48;5.10;;;11.70;99.90;;;;;;5028386;28;20032;-47
2022/06/13 00:11:09;;;;;;;10.73;5.70;;;11.70;99.90;;;;;;5048267;28;20029;-50
2022/06/13 00:13:36;;;;;;;9.15;5.13;;;11.70;99.90;;;;;;5044711;28;20025;-49
2022/06/13 00:16:14;;;;;;;11.82;5.18;;;11.60;99.90;;;;;;5027692;28;20049;-46
2022/06/13 00:18:42;;;;;;;12.70;4.50;;;11.60;99.90;;;;;;5041639;28;20025;-51
2022/06/13 00:21:08;;;;;;;11.13;5.30;;;11.60;99.90;;;;;;5045957;28;20057;-48
2022/06/13 00:23:36;;;;;;;16.60;5.72;;;11.60;99.90;;;;;;5048859;28;20081;-49
2022/06/13 00:26:02;;;;;;;12.65;4.68;;;11.60;99.90;;;;;;5047966;28;20021;-50
2022/06/13 00:28:27;;;;;;;10.52;5.28;;;11.60;99.90;;;;;;5029951;28;20028;-49
2022/06/13 00:30:53;;;;;;;9.43;4.60;;;11.60;99.90;;;;;;5044313;28;20024;-47
2022/06/13 00:33:18;;;;;;;10.80;4.80;;;11.50;99.90;;;;;;5046614;28;20029;-48
2022/06/13 00:35:44;;;;;;;12.60;5.25;;;11.50;99.90;;;;;;5043831;28;20040;-46
2022/06/13 00:38:11;;;;;;;12.18;5.15;;;11.50;99.90;;;;;;5046207;28;20063;-48
2022/06/13 00:40:37;;;;;;;13.85;5.85;;;11.50;99.90;;;;;;5030715;28;20028;-46
2022/06/13 00:43:03;;;;;;;8.55;5.07;;;11.50;99.90;;;;;;5045054;28;20017;-48
2022/06/13 00:45:34;;;;;;;8.95;5.25;;;11.50;99.90;;;;;;5047940;28;20040;-49
2022/06/13 00:48:00;;;;;;;8.70;4.90;;;11.50;99.90;;;;;;5044304;28;20100;-45
2022/06/13 00:50:31;;;;;;;12.30;4.53;;;11.50;99.90;;;;;;5046877;28;20439;-48
2022/06/13 00:53:07;;;;;;;15.30;6.63;;;11.50;99.90;;;;;;5030620;28;20033;-51
2022/06/13 00:55:36;;;;;;;12.63;5.28;;;11.40;99.90;;;;;;5045993;28;20025;-50
2022/06/13 00:58:04;;;;;;;11.90;5.43;;;11.40;99.90;;;;;;5047520;28;20441;-47
2022/06/13 01:00:31;;;;;;;19.00;6.30;;;11.40;99.90;;;;;;5021399;28;20408;-46
2022/06/13 01:02:58;;;;;;;11.73;5.35;;;11.40;99.90;;;;;;5034289;28;20091;-48
2022/06/13 01:05:27;;;;;;;10.25;4.90;;;11.40;99.90;;;;;;5041254;28;20018;-49
2022/06/13 01:07:54;;;;;;;12.30;5.38;;;11.40;99.90;;;;;;5048780;28;20387;-49
2022/06/13 01:13:08;;;;;;;7.88;4.63;;;11.30;99.90;;;;;;5047803;28;20127;-46
2022/06/13 01:15:43;;;;;;;10.90;5.20;;;11.30;99.90;;;;;;5044117;28;20075;-48
2022/06/13 01:18:17;;;;;;;14.27;5.47;;;11.30;99.90;;;;;;5046883;28;20025;-48
2022/06/13 01:21:04;;;;;;;10.52;4.30;;;11.30;99.90;;;;;;5043002;28;20509;-49
2022/06/13 01:23:35;;;;;;;10.50;4.88;;;11.20;99.90;;;;;;5043304;28;20017;-48
2022/06/13 01:26:09;;;;;;;13.65;4.75;;;11.20;99.90;;;;;;5020757;28;20017;-46
2022/06/13 01:29:15;;;;;;;13.88;5.45;;;11.20;99.90;;;;;;5025931;28;20472;-48
2022/06/13 01:31:56;;;;;;;8.07;4.80;;;11.20;99.90;;;;;;5044146;28;20104;-49
2022/06/13 01:35:08;;;;;;;9.73;5.30;;;11.20;99.90;;;;;;5042916;28;20029;-48
2022/06/13 01:37:48;;;;;;;12.43;4.97;;;11.20;99.90;;;;;;5037965;28;20022;-49
2022/06/13 01:40:29;;;;;;;9.35;4.88;;;11.20;99.90;;;;;;5040758;28;20025;-49
2022/06/13 01:43:12;;;;;;;9.02;4.45;;;11.10;99.90;;;;;;5047540;28;20055;-47
2022/06/13 01:45:53;;;;;;;11.00;4.35;;;11.10;99.90;;;;;;5044973;28;20026;-51
2022/06/13 01:48:46;;;;;;;5.53;4.30;;;11.00;99.90;;;;;;5030785;28;20056;-46
2022/06/13 01:51:17;;;;;;;15.93;6.10;;;11.00;99.90;;;;;;5041189;28;20025;-50
2022/06/13 01:54:11;;;;;;;10.65;5.22;;;11.00;99.90;;;;;;5046336;28;20048;-46
2022/06/13 01:56:53;;;;;;;11.85;5.15;;;11.00;99.90;;;;;;5048219;28;20337;-46
2022/06/13 01:59:33;;;;;;;11.55;5.07;;;10.90;99.90;;;;;;5044283;28;20198;-50
2022/06/13 02:02:13;;;;;;;6.35;4.63;;;10.90;99.90;;;;;;5047317;28;20029;-48
2022/06/13 02:04:49;;;;;;;12.73;5.25;;;10.90;99.90;;;;;;5025436;28;20024;-50
2022/06/13 02:07:24;;;;;;;9.07;4.47;;;10.90;99.90;;;;;;5044181;28;20017;-48
2022/06/13 02:10:04;;;;;;;15.25;5.88;;;10.90;99.90;;;;;;5027826;28;20116;-45
2022/06/13 02:12:34;;;;;;;15.60;6.15;;;10.90;99.90;;;;;;5047472;28;20025;-47
2022/06/13 02:15:28;;;;;;;13.50;6.03;;;10.80;99.90;;;;;;5032819;28;20025;-48
2022/06/13 02:18:03;;;;;;;14.80;5.95;;;10.80;99.90;;;;;;5048181;28;20029;-50
2022/06/13 02:20:35;;;;;;;8.63;5.00;;;10.80;99.90;;;;;;5051847;28;20044;-50
2022/06/13 02:23:15;;;;;;;8.38;4.72;;;10.80;99.90;;;;;;5046329;28;20020;-47
2022/06/13 02:25:50;;;;;;;8.68;4.88;;;10.80;99.90;;;;;;5051989;28;20082;-46
2022/06/13 02:28:29;;;;;;;11.93;5.20;;;10.80;99.90;;;;;;5031570;28;20013;-44
2022/06/13 02:31:00;;;;;;;9.70;5.75;;;10.80;99.90;;;;;;5051600;28;20399;-46
2022/06/13 02:33:28;;;;;;;13.48;4.93;;;10.80;99.90;;;;;;5048310;28;20099;-49
2022/06/13 02:35:59;;;;;;;10.30;5.22;;;10.90;99.90;;;;;;5051525;28;20106;-47
2022/06/13 02:38:29;;;;;;;12.00;4.65;;;10.90;99.90;;;;;;5047193;28;20021;-48
2022/06/13 02:40:59;;;;;;;11.73;5.47;;;10.90;99.90;;;;;;5049778;28;20491;-46
2022/06/13 02:43:39;;;;;;;12.45;4.95;;;10.90;99.90;;;;;;5028561;28;20021;-48
2022/06/13 02:46:16;;;;;;;12.30;4.88;;;10.90;99.90;;;;;;5050540;28;20510;-46
2022/06/13 02:49:09;;;;;;;11.10;5.00;;;10.90;99.90;;;;;;5032864;28;20125;-47
2022/06/13 02:51:50;;;;;;;10.95;4.50;;;10.90;99.90;;;;;;5045946;28;20021;-49
2022/06/13 02:54:24;;;;;;;15.88;4.97;;;11.00;99.90;;;;;;5050353;28;20483;-47
2022/06/13 02:57:27;;;;;;;7.55;4.43;;;11.00;99.90;;;;;;5046686;28;20032;-48
2022/06/13 03:00:21;;;;;;;13.20;5.85;;;11.00;99.90;;;;;;5047852;28;20111;-48
2022/06/13 03:03:18;;;;;;;18.60;5.32;;;11.00;99.90;;;;;;5046353;28;20499;-46
2022/06/13 03:05:57;;;;;;;9.20;5.55;;;11.00;99.90;;;;;;5047120;28;20044;-47
2022/06/13 03:08:31;;;;;;;12.68;5.35;;;11.10;99.90;;;;;;5044379;28;20566;-46
2022/06/13 03:11:24;;;;;;;12.63;5.53;;;11.10;99.90;;;;;;5049705;28;20033;-46
2022/06/13 03:13:50;;;;;;;15.60;6.35;;;11.10;99.90;;;;;;5046578;28;20127;-46
2022/06/13 03:16:29;;;;;;;10.82;5.25;;;11.10;99.90;;;;;;5047929;28;20017;-47
2022/06/13 03:19:08;;;;;;;10.98;5.53;;;11.20;99.90;;;;;;5032325;28;20029;-48
2022/06/13 03:21:38;;;;;;;10.32;5.40;;;11.20;99.90;;;;;;5046997;28;20511;-48
2022/06/13 03:24:31;;;;;;;12.85;5.88;;;11.20;99.90;;;;;;5049070;28;20075;-48
2022/06/13 03:27:04;;;;;;;14.77;6.97;;;11.30;99.90;;;;;;5047793;28;20498;-47
2022/06/13 03:29:35;;;;;;;18.65;5.85;;;11.30;99.90;;;;;;5050729;28;20479;-47
2022/06/13 03:32:12;;;;;;;9.07;5.82;;;11.40;99.90;;;;;;5048686;28;20080;-47
2022/06/13 03:34:41;;;;;;;7.53;5.10;;;11.40;99.90;;;;;;5031782;28;20506;-50
2022/06/13 03:37:14;;;;;;;19.95;6.80;;;11.40;99.90;;;;;;5046692;28;20159;-47
2022/06/13 03:39:46;;;;;;;12.45;6.22;;;11.40;99.90;;;;;;5048878;28;20021;-49
2022/06/13 03:42:34;;;;;;;12.10;6.57;;;11.40;99.90;;;;;;5049935;28;20017;-46
2022/06/13 03:45:24;;;;;;;9.48;5.88;;;11.40;99.90;;;;;;5047096;28;20033;-49
2022/06/13 03:47:52;;;;;;;13.57;6.47;;;11.50;99.90;;;;;;5032652;28;20086;-49
2022/06/13 03:50:23;;;;;;;12.18;6.95;;;11.50;99.90;;;;;;5028957;28;20021;-48
2022/06/13 03:52:55;;;;;;;11.95;5.72;;;11.50;99.90;;;;;;5050301;28;20027;-51
2022/06/13 03:55:29;;;;;;;13.30;6.78;;;11.50;99.90;;;;;;5045226;28;20602;-51
2022/06/13 03:58:04;;;;;;;18.98;6.78;;;11.50;99.90;;;;;;5049443;28;20048;-48
2022/06/13 04:00:35;;;;;;;6.80;4.32;;;11.50;99.90;;;;;;5044480;28;20042;-47
2022/06/13 04:03:02;;;;;;;11.05;4.72;;;11.40;99.90;;;;;;5127927;22;20108;-44
2022/06/13 04:05:36;;;;;;;7.38;4.07;;;11.40;99.90;;;;;;5107091;28;20016;-44
2022/06/13 04:08:04;;;;;;;8.20;4.88;;;11.40;99.90;;;;;;5109941;28;20022;-43
2022/06/13 04:10:43;;;;;;;6.85;3.95;;;11.40;99.90;;;;;;5106325;28;20017;-44
2022/06/13 04:13:20;;;;;;;15.48;5.05;;;11.40;99.90;;;;;;5096944;28;20040;-45
2022/06/13 04:15:56;;;;;;;9.40;4.57;;;11.40;99.90;;;;;;5089810;28;20031;-45
2022/06/13 04:18:27;;;;;;;13.93;4.75;;;11.40;99.90;;;;;;5082985;28;20190;-45
2022/06/13 04:21:15;;;;;;;10.43;4.55;;;11.40;99.90;;;;;;5085087;28;20031;-45
2022/06/13 04:23:49;;;;;;;8.85;4.13;;;11.40;99.90;;;;;;5085366;28;20047;-44
2022/06/13 04:26:20;;;;;;;6.18;4.03;;;11.40;99.90;;;;;;5082838;28;20012;-45
2022/06/13 04:28:51;;;;;;;12.85;5.68;;;11.50;99.90;;;;;;5090314;28;20088;-46
2022/06/13 04:31:18;;;;;;;7.00;4.18;;;11.70;99.90;;;;;;5080502;28;20028;-50
2022/06/13 04:33:54;;;;;;;8.00;4.07;;;11.80;99.90;;;;;;5088678;28;20385;-47
2022/06/13 04:36:22;;;;;;;8.38;3.78;;;11.90;99.90;;;;;;5079496;28;20059;-49
2022/06/13 04:38:52;;;;;;;8.90;4.32;;;11.90;99.90;;;;;;5088077;28;20028;-51
2022/06/13 04:41:21;;;;;;;11.13;5.70;;;12.00;99.90;;;;;;5078552;28;20020;-45
2022/06/13 04:43:51;;;;;;;10.23;4.80;;;11.90;99.90;;;;;;5086225;28;20016;-45
2022/06/13 04:46:23;;;;;;;8.40;4.53;;;12.00;99.90;;;;;;5081989;28;20119;-47
2022/06/13 04:48:51;;;;;;;7.78;4.93;;;12.00;99.90;;;;;;5086209;28;20103;-46
2022/06/13 04:51:20;;;;;;;9.30;4.30;;;12.00;99.90;;;;;;5088534;28;20534;-47
2022/06/13 04:53:57;;;;;;;10.20;4.80;;;12.00;99.90;;;;;;5085064;28;20483;-45
2022/06/13 04:56:23;;;;;;;10.05;4.88;;;12.00;99.90;;;;;;5082667;28;20034;-47
2022/06/13 04:58:54;;;;;;;15.57;5.88;;;12.10;99.90;;;;;;5084710;28;20547;-45
2022/06/13 05:01:47;;;;;;;13.25;6.05;;;12.10;99.90;;;;;;5086905;28;20455;-46
2022/06/13 05:04:19;;;;;;;11.07;5.55;;;12.10;99.90;;;;;;5080194;28;20040;-46
2022/06/13 05:06:46;;;;;;;13.43;5.20;;;12.20;99.90;;;;;;5085750;28;20020;-51
2022/06/13 05:09:15;;;;;;;12.23;6.07;;;12.20;99.90;;;;;;5088365;28;20021;-48
2022/06/13 05:12:06;;;;;;;15.45;6.53;;;12.20;99.90;;;;;;5085033;28;20073;-50
2022/06/13 05:14:35;;;;;;;10.13;5.63;;;12.10;99.90;;;;;;5083546;28;20024;-48
2022/06/13 05:17:07;;;;;;;11.38;5.45;;;12.10;99.90;;;;;;5088271;28;20478;-47
2022/06/13 05:19:51;;;;;;;8.07;5.82;;;12.10;99.90;;;;;;5085013;28;20028;-49
2022/06/13 05:22:50;;;;;;;11.10;5.18;;;12.10;99.90;;;;;;5081155;28;20013;-49
2022/06/13 05:25:22;;;;;;;13.85;6.00;;;12.20;99.90;;;;;;5081521;28;20024;-47
2022/06/13 05:27:47;;;;;;;15.00;6.25;;;12.30;99.90;;;;;;5086722;28;20016;-51
2022/06/13 05:30:15;;;;;;;11.77;5.25;;;12.30;99.90;;;;;;5089076;28;20031;-50
2022/06/13 05:32:42;;;;;;;15.60;5.60;;;12.40;99.90;;;;;;5085375;28;20039;-45
2022/06/13 05:35:17;;;;;;;11.25;5.05;;;12.40;99.90;;;;;;5069990;28;20111;-48
2022/06/13 05:37:43;;;;;;;14.93;6.35;;;12.60;99.90;;;;;;5085413;28;20016;-46
2022/06/13 05:40:20;;;;;;;11.75;5.90;;;12.70;99.90;;;;;;5069815;28;20786;-45
2022/06/13 05:42:46;;;;;;;11.48;5.55;;;12.90;99.90;;;;;;5083830;28;20146;-47
2022/06/13 05:45:14;;;;;;;8.80;5.00;;;13.00;99.90;;;;;;5086554;28;20521;-47
2022/06/13 05:47:41;;;;;;;11.40;6.05;;;13.30;99.90;;;;;;5089295;28;20326;-45
2022/06/13 05:50:14;;;;;;;11.80;5.57;;;13.40;99.90;;;;;;5087451;28;20028;-44
2022/06/13 05:52:41;;;;;;;9.63;5.75;;;13.60;99.90;;;;;;5092928;28;20081;-46
2022/06/13 05:55:07;;;;;;;13.63;6.22;;;13.60;99.90;;;;;;5086871;28;20028;-45
2022/06/13 05:57:32;;;;;;;10.07;5.57;;;13.70;99.90;;;;;;5093145;28;20027;-46
2022/06/13 05:59:58;;;;;;;10.27;5.50;;;13.60;99.90;;;;;;5086397;28;20028;-45
2022/06/13 06:02:23;;;;;;;12.63;6.68;;;13.60;99.90;;;;;;5091113;28;20024;-44
2022/06/13 06:04:49;;;;;;;14.15;5.72;;;13.70;99.90;;;;;;5092957;28;20089;-44
2022/06/13 06:07:14;;;;;;;10.52;4.82;;;13.80;99.90;;;;;;5088533;28;20025;-45
2022/06/13 06:09:40;;;;;;;15.80;5.50;;;13.90;99.90;;;;;;5092921;28;20028;-50
2022/06/13 06:12:06;;;;;;;8.20;4.93;;;14.00;99.90;;;;;;5086047;28;20057;-43
2022/06/13 06:14:32;;;;;;;12.70;4.97;;;14.10;99.90;;;;;;5092755;28;20016;-46
2022/06/13 06:16:57;;;;;;;9.32;4.70;;;14.40;99.90;;;;;;5091590;28;20110;-44
2022/06/13 06:19:23;;;;;;;10.15;4.80;;;14.40;99.90;;;;;;5088697;28;20025;-44
2022/06/13 06:21:48;;;;;;;12.73;5.40;;;14.60;99.90;;;;;;5090217;28;20023;-46
2022/06/13 06:24:14;;;;;;;14.57;4.28;;;14.70;99.90;;;;;;5081275;28;20020;-45
2022/06/13 06:26:39;;;;;;;16.30;4.68;;;14.80;99.90;;;;;;5088277;28;20028;-45
2022/06/13 06:29:05;;;;;;;10.38;4.80;;;14.90;99.90;;;;;;5092491;28;20486;-46
2022/06/13 06:31:32;;;;;;;11.38;4.97;;;15.00;99.90;;;;;;5088512;28;20514;-46
2022/06/13 06:33:57;;;;;;;9.10;4.25;;;15.10;99.90;;;;;;5091228;28;20517;-44
2022/06/13 06:36:23;;;;;;;7.35;4.25;;;15.10;99.90;;;;;;5088042;28;20020;-45
2022/06/13 06:38:49;;;;;;;11.57;4.40;;;15.10;99.90;;;;;;5090168;28;20016;-45
2022/06/13 06:41:15;;;;;;;8.00;4.20;;;15.20;99.90;;;;;;5088315;28;20070;-44
2022/06/13 06:43:41;;;;;;;11.43;4.80;;;15.30;99.90;;;;;;5087650;28;20036;-44
2022/06/13 06:46:08;;;;;;;11.80;3.58;;;15.50;99.90;;;;;;5092067;28;20020;-45
2022/06/13 06:48:33;;;;;;;10.15;4.60;;;15.60;99.90;;;;;;5088453;28;20043;-45
2022/06/13 06:50:59;;;;;;;6.72;3.95;;;15.90;99.90;;;;;;5091137;28;20032;-44
2022/06/13 06:53:26;;;;;;;8.32;3.20;;;16.20;99.90;;;;;;5087615;28;20025;-46
2022/06/13 07:01:22;;;;;;;10.15;4.07;;;15.90;99.90;;;;;;5082963;28;20026;-45
2022/06/13 07:03:48;;;;;;;10.10;4.00;;;15.70;99.90;;;;;;5091372;28;20109;-44
2022/06/13 07:06:15;;;;;;;8.50;3.17;;;15.60;99.90;;;;;;5083652;28;20092;-47
2022/06/13 07:08:42;;;;;;;8.52;3.55;;;15.50;99.90;;;;;;5090720;28;20556;-50
2022/06/13 07:14:16;;;;;;;8.63;2.70;;;15.00;99.90;;;;;;5089856;28;20401;-45
2022/06/13 07:16:42;;;;;;;9.05;3.10;;;14.80;99.90;;;;;;5090444;28;20024;-46
2022/06/13 07:19:07;;;;;;;7.68;3.28;;;14.50;99.90;;;;;;5070781;28;20132;-51
2022/06/13 07:21:33;;;;;;;7.15;2.25;;;14.40;99.90;;;;;;5088015;28;20020;-49
2022/06/13 07:23:59;;;;;;;6.38;2.10;;;14.20;99.90;;;;;;5089865;28;20418;-48
2022/06/13 07:26:25;;;;;;;4.32;2.00;;;13.90;99.90;;;;;;5085247;28;20013;-46
2022/06/13 07:28:51;;;;;;;2.50;1.45;;;13.70;99.90;;;;;;5091520;28;20023;-49
2022/06/13 07:31:23;;;;;;;2.92;1.10;;;13.50;99.90;;;;;;5087892;28;20025;-45
2022/06/13 07:33:50;;;;;;;2.30;1.20;;;13.40;99.90;;;;;;5090571;28;20024;-46
2022/06/13 07:36:16;;;;;;;2.28;1.00;;;13.30;99.90;;;;;;5087450;28;20100;-47
2022/06/13 07:38:42;;;;;;;1.95;1.00;;;13.20;99.90;;;;;;5088798;28;20024;-44
2022/06/13 07:41:14;;;;;;;0.85;0.63;;;12.90;99.90;;;;;;5088264;28;20058;-45
2022/06/13 07:43:42;;;;;;;1.85;0.70;;;12.70;99.90;;;;;;5086679;28;20008;-47
2022/06/13 07:46:10;;;;;;;1.00;0.80;;;12.70;99.90;;;;;;5090863;28;20090;-45
2022/06/13 07:48:36;;;;;;;1.20;0.70;;;12.70;99.90;;;;;;5087352;28;20016;-45
2022/06/13 07:51:02;;;;;;;1.75;0.80;;;12.70;99.90;;;;;;5089911;28;20081;-45
2022/06/13 07:53:28;;;;;;;0.95;0.63;;;12.70;99.90;;;;;;5086019;28;20032;-45
2022/06/13 07:55:53;;;;;;;1.55;1.08;;;12.70;99.90;;;;;;5088888;28;20034;-50
2022/06/13 07:58:25;;;;;;;1.10;1.00;;;13.00;99.90;;;;;;5086695;28;20482;-46
2022/06/13 08:00:51;;;;;;;2.85;0.95;;;13.10;99.90;;;;;;5087716;28;20064;-47
2022/06/13 08:03:24;;;;;;;2.15;0.90;;;13.20;99.90;;;;;;5089925;28;20478;-44
2022/06/13 08:05:50;;;;;;;2.47;1.05;;;13.30;99.90;;;;;;5087138;28;20458;-45
2022/06/13 08:08:16;;;;;;;1.55;0.98;;;13.50;99.90;;;;;;5089807;28;20012;-44
2022/06/13 08:10:42;;;;;;;1.20;1.10;;;13.70;99.90;;;;;;5086056;28;20023;-45
2022/06/13 08:13:11;;;;;;;3.00;1.15;;;13.80;99.90;;;;;;5087745;28;20081;-45
2022/06/13 08:15:37;;;;;;;2.00;0.90;;;13.80;99.90;;;;;;5072042;28;20069;-45
2022/06/13 08:18:03;;;;;;;2.83;0.80;;;13.80;99.90;;;;;;5089266;28;20036;-44
2022/06/13 08:20:28;;;;;;;1.58;0.60;;;13.70;99.90;;;;;;5085921;28;20026;-47
2022/06/13 08:22:55;;;;;;;3.13;1.02;;;13.60;99.90;;;;;;5088151;28;20051;-45
2022/06/13 08:25:27;;;;;;;1.17;1.00;;;13.50;99.90;;;;;;5085070;28;20422;-44
2022/06/13 08:27:54;;;;;;;1.52;0.75;;;13.30;99.90;;;;;;5087072;28;20051;-46
2022/06/13 08:30:20;;;;;;;1.90;0.90;;;13.20;99.90;;;;;;5090275;28;20031;-44
2022/06/13 08:32:45;;;;;;;2.85;0.93;;;13.20;99.90;;;;;;5086076;28;20016;-44
2022/06/13 08:35:12;;;;;;;2.95;0.75;;;13.20;99.90;;;;;;5070830;28;20401;-45
2022/06/13 08:37:38;;;;;;;3.15;1.00;;;13.30;99.90;;;;;;5085576;28;20024;-45
2022/06/13 08:40:05;;;;;;;2.00;0.88;;;13.30;99.90;;;;;;5088065;28;20024;-46
2022/06/13 08:42:43;;;;;;;1.33;1.13;;;13.30;99.90;;;;;;5084575;28;20031;-46
2022/06/13 08:45:23;;;;;;;1.90;0.80;;;13.30;99.90;;;;;;5090082;28;20027;-45
2022/06/13 08:47:49;;;;;;;0.85;0.68;;;13.30;99.90;;;;;;5090130;28;20016;-44
2022/06/13 08:50:23;;;;;;;0.68;0.68;;;13.10;99.90;;;;;;5085457;28;20078;-44
2022/06/13 08:52:54;;;;;;;2.28;0.77;;;13.10;99.90;;;;;;5089502;28;20016;-46
2022/06/13 08:55:42;;;;;;;2.70;1.17;;;13.10;99.90;;;;;;5084605;28;20028;-44
2022/06/13 08:58:16;;;;;;;2.80;0.93;;;13.20;99.90;;;;;;5087413;28;20024;-44
2022/06/13 09:00:50;;;;;;;3.22;1.10;;;13.50;99.90;;;;;;5067411;28;20028;-44
2022/06/13 09:03:22;;;;;;;1.75;0.98;;;13.70;99.90;;;;;;5081204;28;20058;-44
2022/06/13 09:06:14;;;;;;;2.58;1.02;;;13.70;99.90;;;;;;5086173;28;20027;-46
2022/06/13 09:09:01;;;;;;;1.33;0.70;;;14.10;99.90;;;;;;5085020;28;20035;-46
2022/06/13 09:11:45;;;;;;;3.38;0.82;;;14.40;99.90;;;;;;5083240;28;20027;-45
2022/06/13 09:14:27;;;;;;;1.17;0.60;;;14.80;99.90;;;;;;5087635;28;20019;-44
2022/06/13 09:17:04;;;;;;;2.60;0.75;;;15.00;99.90;;;;;;5067525;28;20033;-44
2022/06/13 09:19:43;;;;;;;2.20;0.68;;;15.20;99.90;;;;;;5085480;28;20116;-44
2022/06/13 09:22:22;;;;;;;0.70;0.70;;;15.20;99.90;;;;;;5086457;28;20024;-44
2022/06/13 09:25:16;;;;;;;1.75;0.77;;;15.30;99.90;;;;;;5086647;28;20016;-44
2022/06/13 09:28:09;;;;;;;0.50;0.50;;;15.50;99.90;;;;;;5080384;28;20398;-44
2022/06/13 09:30:43;;;;;;;2.25;1.15;;;15.50;99.90;;;;;;5088513;28;20474;-45
2022/06/13 09:33:18;;;;;;;2.22;0.80;;;15.40;99.90;;;;;;5088699;28;20081;-44
2022/06/13 09:35:51;;;;;;;2.80;0.80;;;15.20;99.90;;;;;;5093646;28;20020;-45
2022/06/13 09:38:35;;;;;;;1.55;0.85;;;15.50;99.90;;;;;;5073550;28;20027;-44
2022/06/13 09:41:01;;;;;;;1.30;0.70;;;15.60;99.90;;;;;;5091668;28;20027;-44
2022/06/13 09:43:47;;;;;;;1.50;0.50;;;15.70;99.90;;;;;;5087156;28;20109;-46
2022/06/13 09:46:40;;;;;;;1.83;0.80;;;15.90;99.90;;;;;;5092248;28;20448;-44
2022/06/13 09:49:08;;;;;;;2.00;0.82;;;16.00;99.90;;;;;;5088797;28;20056;-43
2022/06/13 09:51:54;;;;;;;3.00;0.70;;;16.00;99.90;;;;;;5091833;28;20127;-44
2022/06/13 09:54:34;;;;;;;1.58;0.50;;;16.10;99.90;;;;;;5085643;28;20027;-46
2022/06/13 09:57:13;;;;;;;0.50;0.50;;;16.10;99.90;;;;;;5091595;28;20379;-46
2022/06/13 09:59:54;;;;;;;1.27;0.55;;;16.20;99.90;;;;;;5088192;28;20166;-48
2022/06/13 10:02:19;;;;;;;0.63;0.43;;;16.20;99.90;;;;;;5090429;28;20020;-45
2022/06/13 10:04:59;;;;;;;2.67;0.68;;;16.20;99.90;;;;;;5143327;22;20179;-49
2022/06/13 10:07:28;;;;;;;0.68;0.40;;;16.30;99.90;;;;;;5049463;28;20024;-51
2022/06/13 10:10:16;;;;;;;1.63;0.57;;;16.30;99.90;;;;;;5051634;28;20552;-53
2022/06/13 10:12:59;;;;;;;0.73;0.70;;;16.50;99.90;;;;;;5049814;28;20427;-49
2022/06/13 10:15:56;;;;;;;1.92;0.90;;;16.80;99.90;;;;;;5031173;28;20123;-48
2022/06/13 10:18:43;;;;;;;1.55;0.60;;;16.80;99.90;;;;;;5032339;28;20044;-49
2022/06/13 10:21:31;;;;;;;1.40;0.70;;;16.80;99.90;;;;;;5025322;28;20131;-52
2022/06/13 10:24:28;;;;;;;1.60;0.47;;;16.80;99.90;;;;;;5030352;28;20033;-48
2022/06/13 10:27:07;;;;;;;1.73;0.50;;;16.70;99.90;;;;;;5000185;28;20033;-52
2022/06/13 10:29:47;;;;;;;0.52;0.40;;;16.80;99.90;;;;;;5031785;28;20387;-49
2022/06/13 10:32:25;;;;;;;0.40;0.30;;;17.00;99.90;;;;;;5027782;28;20523;-53
2022/06/13 10:35:04;;;;;;;1.55;0.80;;;16.90;99.90;;;;;;5030771;28;20032;-52
2022/06/13 10:37:58;;;;;;;1.98;0.70;;;16.80;99.90;;;;;;5028019;28;20025;-53
2022/06/13 10:40:25;;;;;;;3.80;0.65;;;16.90;99.90;;;;;;5037210;28;20025;-52
2022/06/13 10:42:51;;;;;;;2.63;0.52;;;16.70;99.90;;;;;;5025705;28;20230;-51
2022/06/13 10:45:18;;;;;;;0.88;0.57;;;16.50;99.90;;;;;;5029500;28;20020;-50
2022/06/13 10:48:00;;;;;;;0.88;0.82;;;16.40;99.90;;;;;;5031910;28;20453;-52
2022/06/13 10:50:35;;;;;;;2.30;0.70;;;16.50;99.90;;;;;;5029049;28;20026;-53
2022/06/13 10:53:06;;;;;;;0.75;0.70;;;16.70;99.90;;;;;;5029414;28;20436;-52
2022/06/13 10:55:36;;;;;;;0.40;0.40;;;16.90;99.90;;;;;;5027938;28;20040;-52
2022/06/13 10:58:15;;;;;;;1.92;0.70;;;16.80;99.90;;;;;;5029787;28;20037;-52
2022/06/13 11:01:05;;;;;;;2.20;0.50;;;16.60;99.90;;;;;;5027371;28;20014;-48
2022/06/13 11:03:31;;;;;;;1.30;0.60;;;16.60;99.90;;;;;;5025023;28;20104;-50
2022/06/13 11:06:06;;;;;;;2.35;0.60;;;16.70;99.90;;;;;;5027811;28;20093;-51
2022/06/13 11:08:33;;;;;;;2.92;0.73;;;16.80;99.90;;;;;;5012769;28;20071;-50
2022/06/13 11:11:04;;;;;;;1.05;0.47;;;17.00;99.90;;;;;;5025532;28;20058;-49
2022/06/13 11:13:37;;;;;;;5.32;0.82;;;17.20;99.90;;;;;;5029382;28;20045;-48
2022/06/13 11:24:49;;;;;;;2.08;0.47;;;17.50;99.90;;;;;;5025698;28;20220;-50
2022/06/13 11:27:41;;;;;;;1.00;0.60;;;17.50;99.90;;;;;;5022995;28;20024;-51
2022/06/13 11:30:40;;;;;;;2.92;0.60;;;17.50;99.90;;;;;;5014777;28;20037;-50
2022/06/13 11:33:09;;;;;;;3.80;0.88;;;17.50;99.90;;;;;;5024382;28;20030;-50
2022/06/13 11:35:53;;;;;;;3.20;0.70;;;17.50;99.90;;;;;;5029451;28;20125;-49
2022/06/13 11:38:28;;;;;;;2.50;0.88;;;17.60;99.90;;;;;;5025691;28;20024;-47
2022/06/13 11:41:09;;;;;;;2.88;0.40;;;17.90;99.90;;;;;;5029802;28;20032;-50
2022/06/13 11:43:42;;;;;;;2.75;0.77;;;18.10;99.90;;;;;;5025469;28;20449;-48
2022/06/13 11:46:14;;;;;;;3.17;0.30;;;18.30;99.90;;;;;;5030307;28;20061;-48
2022/06/13 11:48:46;;;;;;;0.47;0.30;;;18.20;99.90;;;;;;5026966;28;20018;-52
2022/06/13 11:51:20;;;;;;;2.83;0.63;;;18.30;99.90;;;;;;5011828;28;20028;-51
2022/06/13 11:53:46;;;;;;;1.63;0.70;;;18.50;99.90;;;;;;5026028;28;20021;-51
2022/06/13 11:56:24;;;;;;;3.70;0.80;;;18.50;99.90;;;;;;5011126;28;20029;-48
2022/06/13 11:58:51;;;;;;;4.80;1.13;;;18.40;99.90;;;;;;5025093;28;20060;-47
2022/06/13 12:01:31;;;;;;;3.53;0.55;;;18.40;99.90;;;;;;5027418;28;20080;-51
2022/06/13 12:04:07;;;;;;;2.35;0.50;;;18.30;99.90;;;;;;5029456;28;20373;-52
2022/06/13 12:06:40;;;;;;;1.05;0.50;;;18.50;99.90;;;;;;5027036;28;20076;-48
2022/06/13 12:09:16;;;;;;;2.53;0.68;;;18.60;99.90;;;;;;5029153;28;20048;-48
2022/06/13 12:11:45;;;;;;;1.90;0.50;;;18.70;99.90;;;;;;5025586;28;20022;-49
2022/06/13 12:14:12;;;;;;;2.78;1.20;;;18.70;99.90;;;;;;5010765;28;20053;-50
2022/06/13 12:16:44;;;;;;;3.75;1.20;;;18.80;99.90;;;;;;5033736;28;20969;-51
2022/06/13 12:19:32;;;;;;;3.20;0.90;;;18.90;99.90;;;;;;5009435;28;20054;-52
2022/06/13 12:22:05;;;;;;;0.77;0.60;;;18.90;99.90;;;;;;5018978;28;20120;-48
2022/06/13 12:24:49;;;;;;;1.75;0.63;;;18.80;99.90;;;;;;5025684;28;20040;-50
2022/06/13 12:27:27;;;;;;;2.45;0.80;;;18.80;99.90;;;;;;5006620;28;20433;-52
2022/06/13 12:30:23;;;;;;;3.53;0.82;;;19.00;99.90;;;;;;5029623;28;20078;-50
2022/06/13 12:33:15;;;;;;;1.20;0.70;;;19.20;99.90;;;;;;5025541;28;20021;-52
2022/06/13 12:36:05;;;;;;;1.30;0.40;;;19.10;99.90;;;;;;5025177;28;20036;-48
2022/06/13 12:39:02;;;;;;;0.80;0.70;;;19.10;99.40;;;;;;5025821;28;20140;-52
2022/06/13 12:42:02;;;;;;;2.00;0.65;;;19.10;99.90;;;;;;5018307;28;20395;-49
2022/06/13 12:44:30;;;;;;;2.20;1.00;;;19.20;99.90;;;;;;5020517;28;20151;-51
2022/06/13 12:47:16;;;;;;;3.30;0.95;;;19.30;99.90;;;;;;5027753;28;20479;-52
2022/06/13 12:49:57;;;;;;;2.88;1.20;;;19.20;98.80;;;;;;5025940;28;20146;-51
2022/06/13 12:52:28;;;;;;;2.75;0.50;;;19.10;99.80;;;;;;5029223;28;20029;-50
2022/06/13 12:55:21;;;;;;;4.05;0.75;;;19.10;99.90;;;;;;5023008;28;20029;-49
2022/06/13 12:58:11;;;;;;;1.60;0.60;;;19.20;99.90;;;;;;5018220;28;20499;-50
2022/06/13 13:00:46;;;;;;;3.20;0.90;;;19.10;99.50;;;;;;5024909;28;20032;-52
2022/06/13 13:03:39;;;;;;;1.42;0.65;;;19.00;99.90;;;;;;5029070;28;20384;-49
2022/06/13 13:06:29;;;;;;;0.90;0.38;;;19.20;99.90;;;;;;5026093;28;20025;-50
2022/06/13 13:09:12;;;;;;;2.85;0.70;;;19.20;99.90;;;;;;5028417;28;20091;-51
2022/06/13 13:11:56;;;;;;;1.38;0.70;;;19.10;99.90;;;;;;5023477;28;20025;-51
2022/06/13 13:14:28;;;;;;;5.07;0.90;;;19.20;99.90;;;;;;5029690;28;20104;-49
2022/06/13 13:17:24;;;;;;;2.90;0.85;;;19.20;99.90;;;;;;5030680;28;20109;-49
2022/06/13 13:20:11;;;;;;;0.65;0.57;;;19.00;99.90;;;;;;5024872;28;20072;-49
2022/06/13 13:22:43;;;;;;;3.22;1.48;;;18.80;99.80;;;;;;4997503;28;20116;-52
2022/06/13 13:25:30;;;;;;;4.30;1.13;;;18.80;99.90;;;;;;5023996;28;20090;-52
2022/06/13 13:28:41;;;;;;;4.40;1.02;;;18.70;99.90;;;;;;5026520;28;20109;-51
2022/06/13 13:31:25;;;;;;;2.47;0.70;;;18.70;99.90;;;;;;5026803;28;20033;-50
2022/06/13 13:34:12;;;;;;;3.60;0.85;;;18.60;99.30;;;;;;5017469;28;20103;-50
2022/06/13 13:36:56;;;;;;;2.03;0.85;;;18.60;99.90;;;;;;5025071;28;20121;-53
2022/06/13 13:39:45;;;;;;;1.40;0.50;;;18.50;97.30;;;;;;5020616;28;20507;-48
2022/06/13 13:42:45;;;;;;;4.15;0.80;;;18.10;98.00;;;;;;5009222;28;20029;-49